sensor_id;sensor_type;location;lat;lon;timestamp;P1;durP1;ratioP1;P2;durP2;ratioP2
29728;SDS011;20055;51.498;11.960;2022-08-21T00:01:37;29.88;;;21.50;;
29728;SDS011;20055;51.498;11.960;2022-08-21T00:04:05;31.73;;;23.05;;
29728;SDS011;20055;51.498;11.960;2022-08-21T00:06:32;31.70;;;22.88;;
29728;SDS011;20055;51.498;11.960;2022-08-21T00:08:59;35.53;;;22.42;;
29728;SDS011;20055;51.498;11.960;2022-08-21T00:11:27;32.80;;;21.70;;
29728;SDS011;20055;51.498;11.960;2022-08-21T00:13:53;33.40;;;21.98;;
29728;SDS011;20055;51.498;11.960;2022-08-21T00:16:20;28.92;;;20.83;;
29728;SDS011;20055;51.498;11.960;2022-08-21T00:18:47;33.38;;;19.88;;
29728;SDS011;20055;51.498;11.960;2022-08-21T00:21:13;32.63;;;21.35;;
29728;SDS011;20055;51.498;11.960;2022-08-21T00:23:40;29.55;;;19.77;;
29728;SDS011;20055;51.498;11.960;2022-08-21T00:26:07;28.67;;;19.95;;
29728;SDS011;20055;51.498;11.960;2022-08-21T00:28:33;28.83;;;20.17;;
29728;SDS011;20055;51.498;11.960;2022-08-21T00:31:00;31.35;;;20.38;;
29728;SDS011;20055;51.498;11.960;2022-08-21T00:33:29;32.83;;;21.25;;
29728;SDS011;20055;51.498;11.960;2022-08-21T00:35:56;31.35;;;20.85;;
29728;SDS011;20055;51.498;11.960;2022-08-21T00:38:23;35.00;;;19.63;;
29728;SDS011;20055;51.498;11.960;2022-08-21T00:40:52;29.67;;;19.50;;
29728;SDS011;20055;51.498;11.960;2022-08-21T00:43:22;30.13;;;21.05;;
29728;SDS011;20055;51.498;11.960;2022-08-21T00:45:51;29.35;;;19.10;;
29728;SDS011;20055;51.498;11.960;2022-08-21T00:48:18;28.55;;;19.15;;
29728;SDS011;20055;51.498;11.960;2022-08-21T00:50:50;31.27;;;20.52;;
29728;SDS011;20055;51.498;11.960;2022-08-21T00:53:24;30.23;;;19.40;;
29728;SDS011;20055;51.498;11.960;2022-08-21T00:55:52;31.23;;;18.25;;
29728;SDS011;20055;51.498;11.960;2022-08-21T00:58:20;30.00;;;17.92;;
29728;SDS011;20055;51.498;11.960;2022-08-21T01:00:47;28.00;;;17.58;;
29728;SDS011;20055;51.498;11.960;2022-08-21T01:03:18;22.45;;;15.07;;
29728;SDS011;20055;51.498;11.960;2022-08-21T01:05:48;26.23;;;16.80;;
29728;SDS011;20055;51.498;11.960;2022-08-21T01:08:16;23.65;;;16.88;;
29728;SDS011;20055;51.498;11.960;2022-08-21T01:10:43;23.35;;;15.73;;
29728;SDS011;20055;51.498;11.960;2022-08-21T01:13:11;22.58;;;15.80;;
29728;SDS011;20055;51.498;11.960;2022-08-21T01:15:40;21.48;;;13.07;;
29728;SDS011;20055;51.498;11.960;2022-08-21T01:18:10;21.27;;;14.30;;
29728;SDS011;20055;51.498;11.960;2022-08-21T01:20:37;23.38;;;14.32;;
29728;SDS011;20055;51.498;11.960;2022-08-21T01:23:07;21.55;;;13.20;;
29728;SDS011;20055;51.498;11.960;2022-08-21T01:25:33;21.52;;;12.77;;
29728;SDS011;20055;51.498;11.960;2022-08-21T01:28:02;16.23;;;11.70;;
29728;SDS011;20055;51.498;11.960;2022-08-21T01:30:35;20.73;;;11.88;;
29728;SDS011;20055;51.498;11.960;2022-08-21T01:33:03;18.67;;;11.90;;
29728;SDS011;20055;51.498;11.960;2022-08-21T01:35:30;15.70;;;11.00;;
29728;SDS011;20055;51.498;11.960;2022-08-21T01:37:56;20.45;;;12.85;;
29728;SDS011;20055;51.498;11.960;2022-08-21T01:40:23;20.65;;;11.00;;
29728;SDS011;20055;51.498;11.960;2022-08-21T01:42:49;21.70;;;11.70;;
29728;SDS011;20055;51.498;11.960;2022-08-21T01:45:15;19.15;;;11.35;;
29728;SDS011;20055;51.498;11.960;2022-08-21T01:47:43;18.15;;;11.07;;
29728;SDS011;20055;51.498;11.960;2022-08-21T01:50:11;21.25;;;9.55;;
29728;SDS011;20055;51.498;11.960;2022-08-21T01:52:39;18.00;;;8.43;;
29728;SDS011;20055;51.498;11.960;2022-08-21T01:55:08;18.13;;;9.77;;
29728;SDS011;20055;51.498;11.960;2022-08-21T01:57:35;17.42;;;8.63;;
29728;SDS011;20055;51.498;11.960;2022-08-21T02:00:04;18.33;;;8.57;;
29728;SDS011;20055;51.498;11.960;2022-08-21T02:02:38;14.27;;;8.65;;
29728;SDS011;20055;51.498;11.960;2022-08-21T02:05:06;13.30;;;7.80;;
29728;SDS011;20055;51.498;11.960;2022-08-21T02:07:38;15.95;;;7.18;;
29728;SDS011;20055;51.498;11.960;2022-08-21T02:10:08;17.50;;;6.80;;
29728;SDS011;20055;51.498;11.960;2022-08-21T02:12:35;15.30;;;7.63;;
29728;SDS011;20055;51.498;11.960;2022-08-21T02:15:02;18.10;;;6.97;;
29728;SDS011;20055;51.498;11.960;2022-08-21T02:17:44;18.67;;;6.10;;
29728;SDS011;20055;51.498;11.960;2022-08-21T02:20:15;12.27;;;6.15;;
29728;SDS011;20055;51.498;11.960;2022-08-21T02:22:44;12.23;;;6.55;;
29728;SDS011;20055;51.498;11.960;2022-08-21T02:25:11;15.18;;;6.78;;
29728;SDS011;20055;51.498;11.960;2022-08-21T02:27:39;16.42;;;6.65;;
29728;SDS011;20055;51.498;11.960;2022-08-21T02:30:06;11.23;;;6.43;;
29728;SDS011;20055;51.498;11.960;2022-08-21T02:32:33;17.95;;;6.45;;
29728;SDS011;20055;51.498;11.960;2022-08-21T02:34:59;10.38;;;6.03;;
29728;SDS011;20055;51.498;11.960;2022-08-21T02:37:25;12.30;;;5.80;;
29728;SDS011;20055;51.498;11.960;2022-08-21T02:39:51;16.02;;;6.45;;
29728;SDS011;20055;51.498;11.960;2022-08-21T02:42:18;17.08;;;4.82;;
29728;SDS011;20055;51.498;11.960;2022-08-21T02:44:44;10.07;;;4.70;;
29728;SDS011;20055;51.498;11.960;2022-08-21T02:47:10;27.75;;;6.10;;
29728;SDS011;20055;51.498;11.960;2022-08-21T02:49:36;18.30;;;6.65;;
29728;SDS011;20055;51.498;11.960;2022-08-21T02:52:02;18.63;;;6.45;;
29728;SDS011;20055;51.498;11.960;2022-08-21T02:54:31;10.35;;;4.85;;
29728;SDS011;20055;51.498;11.960;2022-08-21T02:56:57;8.52;;;4.80;;
29728;SDS011;20055;51.498;11.960;2022-08-21T02:59:24;13.20;;;5.10;;
29728;SDS011;20055;51.498;11.960;2022-08-21T03:01:50;13.02;;;4.82;;
29728;SDS011;20055;51.498;11.960;2022-08-21T03:04:16;11.60;;;5.40;;
29728;SDS011;20055;51.498;11.960;2022-08-21T03:06:42;12.13;;;4.97;;
29728;SDS011;20055;51.498;11.960;2022-08-21T03:09:09;11.13;;;5.30;;
29728;SDS011;20055;51.498;11.960;2022-08-21T03:11:35;17.77;;;5.93;;
29728;SDS011;20055;51.498;11.960;2022-08-21T03:14:01;14.02;;;5.18;;
29728;SDS011;20055;51.498;11.960;2022-08-21T03:16:28;19.80;;;4.88;;
29728;SDS011;20055;51.498;11.960;2022-08-21T03:18:54;14.25;;;5.18;;
29728;SDS011;20055;51.498;11.960;2022-08-21T03:21:20;13.55;;;5.03;;
29728;SDS011;20055;51.498;11.960;2022-08-21T03:23:46;9.32;;;4.30;;
29728;SDS011;20055;51.498;11.960;2022-08-21T03:26:13;14.80;;;4.63;;
29728;SDS011;20055;51.498;11.960;2022-08-21T03:28:39;14.52;;;4.97;;
29728;SDS011;20055;51.498;11.960;2022-08-21T03:31:05;14.27;;;5.32;;
29728;SDS011;20055;51.498;11.960;2022-08-21T03:33:31;10.68;;;4.25;;
29728;SDS011;20055;51.498;11.960;2022-08-21T03:35:59;12.00;;;4.78;;
29728;SDS011;20055;51.498;11.960;2022-08-21T03:40:55;17.95;;;4.65;;
29728;SDS011;20055;51.498;11.960;2022-08-21T03:43:22;10.45;;;4.80;;
29728;SDS011;20055;51.498;11.960;2022-08-21T03:45:48;9.95;;;4.60;;
29728;SDS011;20055;51.498;11.960;2022-08-21T03:48:14;7.25;;;4.45;;
29728;SDS011;20055;51.498;11.960;2022-08-21T03:50:41;12.48;;;4.60;;
29728;SDS011;20055;51.498;11.960;2022-08-21T03:53:09;8.85;;;5.15;;
29728;SDS011;20055;51.498;11.960;2022-08-21T03:55:37;8.80;;;4.65;;
29728;SDS011;20055;51.498;11.960;2022-08-21T03:58:03;16.08;;;4.95;;
29728;SDS011;20055;51.498;11.960;2022-08-21T04:00:29;12.75;;;5.22;;
29728;SDS011;20055;51.498;11.960;2022-08-21T04:02:55;11.23;;;4.40;;
29728;SDS011;20055;51.498;11.960;2022-08-21T04:05:22;15.68;;;5.93;;
29728;SDS011;20055;51.498;11.960;2022-08-21T04:07:55;8.93;;;4.57;;
29728;SDS011;20055;51.498;11.960;2022-08-21T04:10:23;8.95;;;5.03;;
29728;SDS011;20055;51.498;11.960;2022-08-21T04:12:51;10.02;;;4.55;;
29728;SDS011;20055;51.498;11.960;2022-08-21T04:15:18;10.00;;;4.82;;
29728;SDS011;20055;51.498;11.960;2022-08-21T04:17:46;10.88;;;5.65;;
29728;SDS011;20055;51.498;11.960;2022-08-21T04:20:12;11.43;;;4.72;;
29728;SDS011;20055;51.498;11.960;2022-08-21T04:22:38;18.25;;;6.50;;
29728;SDS011;20055;51.498;11.960;2022-08-21T04:25:05;17.80;;;6.35;;
29728;SDS011;20055;51.498;11.960;2022-08-21T04:27:33;17.63;;;6.93;;
29728;SDS011;20055;51.498;11.960;2022-08-21T04:30:00;22.98;;;6.50;;
29728;SDS011;20055;51.498;11.960;2022-08-21T04:32:26;18.83;;;6.85;;
29728;SDS011;20055;51.498;11.960;2022-08-21T04:34:59;14.93;;;5.22;;
29728;SDS011;20055;51.498;11.960;2022-08-21T04:37:27;10.88;;;6.38;;
29728;SDS011;20055;51.498;11.960;2022-08-21T04:39:53;8.55;;;4.90;;
29728;SDS011;20055;51.498;11.960;2022-08-21T04:42:24;7.68;;;4.97;;
29728;SDS011;20055;51.498;11.960;2022-08-21T04:44:51;13.15;;;5.35;;
29728;SDS011;20055;51.498;11.960;2022-08-21T04:47:17;16.65;;;5.13;;
29728;SDS011;20055;51.498;11.960;2022-08-21T04:49:44;16.65;;;6.40;;
29728;SDS011;20055;51.498;11.960;2022-08-21T04:52:11;12.10;;;5.63;;
29728;SDS011;20055;51.498;11.960;2022-08-21T04:54:40;13.52;;;5.53;;
29728;SDS011;20055;51.498;11.960;2022-08-21T04:57:10;10.07;;;4.57;;
29728;SDS011;20055;51.498;11.960;2022-08-21T04:59:39;15.65;;;5.32;;
29728;SDS011;20055;51.498;11.960;2022-08-21T05:02:09;10.77;;;5.07;;
29728;SDS011;20055;51.498;11.960;2022-08-21T05:04:37;17.15;;;5.55;;
29728;SDS011;20055;51.498;11.960;2022-08-21T05:07:10;13.50;;;5.10;;
29728;SDS011;20055;51.498;11.960;2022-08-21T05:09:39;11.35;;;4.95;;
29728;SDS011;20055;51.498;11.960;2022-08-21T05:12:06;11.45;;;4.70;;
29728;SDS011;20055;51.498;11.960;2022-08-21T05:14:33;16.15;;;4.75;;
29728;SDS011;20055;51.498;11.960;2022-08-21T05:16:59;20.67;;;5.10;;
29728;SDS011;20055;51.498;11.960;2022-08-21T05:19:26;18.15;;;5.00;;
29728;SDS011;20055;51.498;11.960;2022-08-21T05:21:53;18.05;;;5.25;;
29728;SDS011;20055;51.498;11.960;2022-08-21T05:24:20;9.00;;;4.35;;
29728;SDS011;20055;51.498;11.960;2022-08-21T05:26:47;15.27;;;4.57;;
29728;SDS011;20055;51.498;11.960;2022-08-21T05:29:14;11.30;;;4.60;;
29728;SDS011;20055;51.498;11.960;2022-08-21T05:31:41;13.07;;;4.82;;
29728;SDS011;20055;51.498;11.960;2022-08-21T05:34:07;14.32;;;5.18;;
29728;SDS011;20055;51.498;11.960;2022-08-21T05:36:33;8.75;;;4.95;;
29728;SDS011;20055;51.498;11.960;2022-08-21T05:39:00;9.65;;;4.45;;
29728;SDS011;20055;51.498;11.960;2022-08-21T05:41:26;10.70;;;4.55;;
29728;SDS011;20055;51.498;11.960;2022-08-21T05:43:52;10.88;;;5.13;;
29728;SDS011;20055;51.498;11.960;2022-08-21T05:46:19;9.27;;;4.97;;
29728;SDS011;20055;51.498;11.960;2022-08-21T05:48:45;10.45;;;4.68;;
29728;SDS011;20055;51.498;11.960;2022-08-21T05:51:12;17.15;;;5.30;;
29728;SDS011;20055;51.498;11.960;2022-08-21T05:53:41;13.30;;;4.68;;
29728;SDS011;20055;51.498;11.960;2022-08-21T05:56:08;10.65;;;4.38;;
29728;SDS011;20055;51.498;11.960;2022-08-21T05:58:35;11.32;;;3.95;;
29728;SDS011;20055;51.498;11.960;2022-08-21T06:01:02;13.80;;;4.18;;
29728;SDS011;20055;51.498;11.960;2022-08-21T06:03:31;11.68;;;4.80;;
29728;SDS011;20055;51.498;11.960;2022-08-21T06:06:00;11.27;;;4.10;;
29728;SDS011;20055;51.498;11.960;2022-08-21T06:08:27;10.32;;;4.05;;
29728;SDS011;20055;51.498;11.960;2022-08-21T06:10:54;13.50;;;4.15;;
29728;SDS011;20055;51.498;11.960;2022-08-21T06:13:22;12.32;;;4.30;;
29728;SDS011;20055;51.498;11.960;2022-08-21T06:15:49;12.27;;;4.25;;
29728;SDS011;20055;51.498;11.960;2022-08-21T06:18:16;12.95;;;4.80;;
29728;SDS011;20055;51.498;11.960;2022-08-21T06:20:43;5.57;;;3.90;;
29728;SDS011;20055;51.498;11.960;2022-08-21T06:23:09;13.35;;;4.20;;
29728;SDS011;20055;51.498;11.960;2022-08-21T06:25:35;9.15;;;4.25;;
29728;SDS011;20055;51.498;11.960;2022-08-21T06:28:04;12.10;;;4.35;;
29728;SDS011;20055;51.498;11.960;2022-08-21T06:30:36;9.52;;;3.38;;
29728;SDS011;20055;51.498;11.960;2022-08-21T06:33:03;8.98;;;3.65;;
29728;SDS011;20055;51.498;11.960;2022-08-21T06:35:30;7.75;;;3.42;;
29728;SDS011;20055;51.498;11.960;2022-08-21T06:37:56;7.82;;;4.35;;
29728;SDS011;20055;51.498;11.960;2022-08-21T06:40:23;9.20;;;3.42;;
29728;SDS011;20055;51.498;11.960;2022-08-21T06:45:48;9.27;;;3.53;;
29728;SDS011;20055;51.498;11.960;2022-08-21T06:48:15;7.15;;;3.20;;
29728;SDS011;20055;51.498;11.960;2022-08-21T06:50:41;12.68;;;4.18;;
29728;SDS011;20055;51.498;11.960;2022-08-21T06:53:08;10.38;;;3.50;;
29728;SDS011;20055;51.498;11.960;2022-08-21T06:55:37;7.32;;;3.85;;
29728;SDS011;20055;51.498;11.960;2022-08-21T06:58:05;16.48;;;4.35;;
29728;SDS011;20055;51.498;11.960;2022-08-21T07:00:32;12.70;;;3.85;;
29728;SDS011;20055;51.498;11.960;2022-08-21T07:02:58;12.52;;;3.92;;
29728;SDS011;20055;51.498;11.960;2022-08-21T07:05:26;12.57;;;4.10;;
29728;SDS011;20055;51.498;11.960;2022-08-21T07:07:53;13.10;;;3.90;;
29728;SDS011;20055;51.498;11.960;2022-08-21T07:10:19;12.45;;;3.40;;
29728;SDS011;20055;51.498;11.960;2022-08-21T07:12:46;14.73;;;3.42;;
29728;SDS011;20055;51.498;11.960;2022-08-21T07:15:12;12.00;;;4.00;;
29728;SDS011;20055;51.498;11.960;2022-08-21T07:17:38;15.70;;;3.70;;
29728;SDS011;20055;51.498;11.960;2022-08-21T07:20:05;11.98;;;3.50;;
29728;SDS011;20055;51.498;11.960;2022-08-21T07:22:32;12.68;;;3.53;;
29728;SDS011;20055;51.498;11.960;2022-08-21T07:25:00;14.10;;;3.05;;
29728;SDS011;20055;51.498;11.960;2022-08-21T07:27:27;10.25;;;3.47;;
29728;SDS011;20055;51.498;11.960;2022-08-21T07:29:53;14.05;;;3.63;;
29728;SDS011;20055;51.498;11.960;2022-08-21T07:32:19;9.57;;;3.55;;
29728;SDS011;20055;51.498;11.960;2022-08-21T07:34:45;10.75;;;4.22;;
29728;SDS011;20055;51.498;11.960;2022-08-21T07:37:15;11.27;;;3.75;;
29728;SDS011;20055;51.498;11.960;2022-08-21T07:39:42;8.20;;;3.13;;
29728;SDS011;20055;51.498;11.960;2022-08-21T07:42:08;8.27;;;3.40;;
29728;SDS011;20055;51.498;11.960;2022-08-21T07:44:36;5.40;;;3.22;;
29728;SDS011;20055;51.498;11.960;2022-08-21T07:47:02;15.35;;;3.47;;
29728;SDS011;20055;51.498;11.960;2022-08-21T07:49:28;10.00;;;3.20;;
29728;SDS011;20055;51.498;11.960;2022-08-21T07:51:54;6.18;;;3.38;;
29728;SDS011;20055;51.498;11.960;2022-08-21T07:54:20;7.03;;;2.97;;
29728;SDS011;20055;51.498;11.960;2022-08-21T07:56:47;11.70;;;3.10;;
29728;SDS011;20055;51.498;11.960;2022-08-21T07:59:13;9.10;;;3.60;;
29728;SDS011;20055;51.498;11.960;2022-08-21T08:01:39;5.65;;;3.20;;
29728;SDS011;20055;51.498;11.960;2022-08-21T08:04:06;8.10;;;2.88;;
29728;SDS011;20055;51.498;11.960;2022-08-21T08:06:32;8.73;;;3.50;;
29728;SDS011;20055;51.498;11.960;2022-08-21T08:08:58;12.00;;;3.83;;
29728;SDS011;20055;51.498;11.960;2022-08-21T08:11:24;5.60;;;2.75;;
29728;SDS011;20055;51.498;11.960;2022-08-21T08:13:51;6.07;;;2.58;;
29728;SDS011;20055;51.498;11.960;2022-08-21T08:16:18;14.02;;;4.55;;
29728;SDS011;20055;51.498;11.960;2022-08-21T08:18:44;14.10;;;3.78;;
29728;SDS011;20055;51.498;11.960;2022-08-21T08:21:11;13.30;;;3.38;;
29728;SDS011;20055;51.498;11.960;2022-08-21T08:23:38;7.43;;;2.67;;
29728;SDS011;20055;51.498;11.960;2022-08-21T08:26:04;6.35;;;3.17;;
29728;SDS011;20055;51.498;11.960;2022-08-21T08:28:31;6.43;;;3.47;;
29728;SDS011;20055;51.498;11.960;2022-08-21T08:30:59;7.15;;;3.72;;
29728;SDS011;20055;51.498;11.960;2022-08-21T08:33:26;8.27;;;3.35;;
29728;SDS011;20055;51.498;11.960;2022-08-21T08:35:53;9.55;;;4.13;;
29728;SDS011;20055;51.498;11.960;2022-08-21T08:38:20;9.50;;;3.83;;
29728;SDS011;20055;51.498;11.960;2022-08-21T08:41:11;11.48;;;3.97;;
29728;SDS011;20055;51.498;11.960;2022-08-21T08:43:39;8.73;;;3.70;;
29728;SDS011;20055;51.498;11.960;2022-08-21T08:46:15;19.13;;;5.32;;
29728;SDS011;20055;51.498;11.960;2022-08-21T08:51:19;13.10;;;3.88;;
29728;SDS011;20055;51.498;11.960;2022-08-21T08:53:55;11.90;;;3.55;;
29728;SDS011;20055;51.498;11.960;2022-08-21T08:56:32;12.88;;;4.65;;
29728;SDS011;20055;51.498;11.960;2022-08-21T08:59:06;9.93;;;4.07;;
29728;SDS011;20055;51.498;11.960;2022-08-21T09:01:39;6.93;;;3.08;;
29728;SDS011;20055;51.498;11.960;2022-08-21T09:04:05;8.15;;;2.92;;
29728;SDS011;20055;51.498;11.960;2022-08-21T09:09:58;8.13;;;3.40;;
29728;SDS011;20055;51.498;11.960;2022-08-21T09:17:37;14.07;;;3.72;;
29728;SDS011;20055;51.498;11.960;2022-08-21T09:20:15;11.27;;;3.70;;
29728;SDS011;20055;51.498;11.960;2022-08-21T09:28:40;9.80;;;3.40;;
29728;SDS011;20055;51.498;11.960;2022-08-21T09:31:08;9.45;;;3.40;;
29728;SDS011;20055;51.498;11.960;2022-08-21T09:33:45;13.98;;;4.30;;
29728;SDS011;20055;51.498;11.960;2022-08-21T09:36:11;14.88;;;3.50;;
29728;SDS011;20055;51.498;11.960;2022-08-21T09:38:37;12.57;;;3.22;;
29728;SDS011;20055;51.498;11.960;2022-08-21T09:41:05;8.63;;;3.08;;
29728;SDS011;20055;51.498;11.960;2022-08-21T09:46:04;9.63;;;3.30;;
29728;SDS011;20055;51.498;11.960;2022-08-21T09:48:40;12.05;;;4.43;;
29728;SDS011;20055;51.498;11.960;2022-08-21T09:51:14;10.57;;;3.58;;
29728;SDS011;20055;51.498;11.960;2022-08-21T09:53:44;9.57;;;3.50;;
29728;SDS011;20055;51.498;11.960;2022-08-21T09:56:27;8.95;;;3.60;;
29728;SDS011;20055;51.498;11.960;2022-08-21T09:59:13;11.90;;;3.63;;
29728;SDS011;20055;51.498;11.960;2022-08-21T10:01:44;10.38;;;3.88;;
29728;SDS011;20055;51.498;11.960;2022-08-21T10:04:13;7.85;;;4.18;;
29728;SDS011;20055;51.498;11.960;2022-08-21T10:06:40;14.13;;;3.53;;
29728;SDS011;20055;51.498;11.960;2022-08-21T10:09:11;18.75;;;3.97;;
29728;SDS011;20055;51.498;11.960;2022-08-21T10:11:40;10.27;;;5.22;;
29728;SDS011;20055;51.498;11.960;2022-08-21T10:14:28;12.57;;;4.00;;
29728;SDS011;20055;51.498;11.960;2022-08-21T10:17:05;8.50;;;3.90;;
29728;SDS011;20055;51.498;11.960;2022-08-21T10:25:12;9.95;;;3.65;;
29728;SDS011;20055;51.498;11.960;2022-08-21T10:36:14;12.63;;;3.88;;
29728;SDS011;20055;51.498;11.960;2022-08-21T10:38:58;9.20;;;3.47;;
29728;SDS011;20055;51.498;11.960;2022-08-21T10:44:23;8.63;;;3.70;;
29728;SDS011;20055;51.498;11.960;2022-08-21T10:47:06;10.05;;;3.47;;
29728;SDS011;20055;51.498;11.960;2022-08-21T10:57:29;10.77;;;4.03;;
29728;SDS011;20055;51.498;11.960;2022-08-21T11:00:06;11.95;;;4.72;;
29728;SDS011;20055;51.498;11.960;2022-08-21T11:02:57;11.70;;;4.38;;
29728;SDS011;20055;51.498;11.960;2022-08-21T11:06:04;13.52;;;3.72;;
29728;SDS011;20055;51.498;11.960;2022-08-21T11:08:29;11.82;;;3.65;;
29728;SDS011;20055;51.498;11.960;2022-08-21T11:11:04;10.70;;;3.47;;
29728;SDS011;20055;51.498;11.960;2022-08-21T11:13:37;10.38;;;3.40;;
29728;SDS011;20055;51.498;11.960;2022-08-21T11:18:38;10.80;;;5.40;;
29728;SDS011;20055;51.498;11.960;2022-08-21T11:29:30;17.08;;;6.13;;
29728;SDS011;20055;51.498;11.960;2022-08-21T11:42:50;7.70;;;3.67;;
29728;SDS011;20055;51.498;11.960;2022-08-21T11:45:30;10.98;;;3.63;;
29728;SDS011;20055;51.498;11.960;2022-08-21T11:48:13;14.18;;;4.35;;
29728;SDS011;20055;51.498;11.960;2022-08-21T11:50:52;6.05;;;4.00;;
29728;SDS011;20055;51.498;11.960;2022-08-21T11:53:24;8.18;;;3.90;;
29728;SDS011;20055;51.498;11.960;2022-08-21T11:58:36;11.23;;;3.97;;
29728;SDS011;20055;51.498;11.960;2022-08-21T12:01:16;9.60;;;4.30;;
29728;SDS011;20055;51.498;11.960;2022-08-21T12:06:47;14.98;;;4.22;;
29728;SDS011;20055;51.498;11.960;2022-08-21T12:09:51;6.13;;;3.47;;
29728;SDS011;20055;51.498;11.960;2022-08-21T12:12:34;11.00;;;3.75;;
29728;SDS011;20055;51.498;11.960;2022-08-21T12:22:54;10.98;;;3.85;;
29728;SDS011;20055;51.498;11.960;2022-08-21T12:30:55;8.75;;;3.50;;
29728;SDS011;20055;51.498;11.960;2022-08-21T12:33:27;10.43;;;3.60;;
29728;SDS011;20055;51.498;11.960;2022-08-21T12:36:03;16.80;;;4.78;;
29728;SDS011;20055;51.498;11.960;2022-08-21T12:38:47;15.48;;;4.28;;
29728;SDS011;20055;51.498;11.960;2022-08-21T12:41:17;7.60;;;3.75;;
29728;SDS011;20055;51.498;11.960;2022-08-21T12:43:57;7.90;;;3.70;;
29728;SDS011;20055;51.498;11.960;2022-08-21T12:46:33;9.52;;;3.85;;
29728;SDS011;20055;51.498;11.960;2022-08-21T12:49:08;13.32;;;4.28;;
29728;SDS011;20055;51.498;11.960;2022-08-21T12:52:00;9.25;;;4.03;;
29728;SDS011;20055;51.498;11.960;2022-08-21T12:54:41;8.95;;;3.83;;
29728;SDS011;20055;51.498;11.960;2022-08-21T12:57:09;15.60;;;5.47;;
29728;SDS011;20055;51.498;11.960;2022-08-21T12:59:44;8.20;;;4.35;;
29728;SDS011;20055;51.498;11.960;2022-08-21T13:02:18;6.65;;;3.33;;
29728;SDS011;20055;51.498;11.960;2022-08-21T13:04:47;10.30;;;3.72;;
29728;SDS011;20055;51.498;11.960;2022-08-21T13:07:16;6.18;;;3.47;;
29728;SDS011;20055;51.498;11.960;2022-08-21T13:09:54;6.53;;;3.75;;
29728;SDS011;20055;51.498;11.960;2022-08-21T13:12:31;5.55;;;3.50;;
29728;SDS011;20055;51.498;11.960;2022-08-21T13:15:00;9.35;;;3.90;;
29728;SDS011;20055;51.498;11.960;2022-08-21T13:17:32;5.65;;;3.20;;
29728;SDS011;20055;51.498;11.960;2022-08-21T13:20:24;8.30;;;3.90;;
29728;SDS011;20055;51.498;11.960;2022-08-21T13:22:50;9.02;;;3.65;;
29728;SDS011;20055;51.498;11.960;2022-08-21T13:25:18;8.52;;;3.88;;
29728;SDS011;20055;51.498;11.960;2022-08-21T13:27:57;7.50;;;3.25;;
29728;SDS011;20055;51.498;11.960;2022-08-21T13:30:31;8.90;;;3.78;;
29728;SDS011;20055;51.498;11.960;2022-08-21T13:32:59;9.75;;;3.97;;
29728;SDS011;20055;51.498;11.960;2022-08-21T13:35:30;10.10;;;4.15;;
29728;SDS011;20055;51.498;11.960;2022-08-21T13:38:02;8.20;;;4.22;;
29728;SDS011;20055;51.498;11.960;2022-08-21T13:40:44;11.85;;;3.60;;
29728;SDS011;20055;51.498;11.960;2022-08-21T13:43:16;12.07;;;3.97;;
29728;SDS011;20055;51.498;11.960;2022-08-21T13:48:16;13.20;;;3.92;;
29728;SDS011;20055;51.498;11.960;2022-08-21T13:50:43;10.00;;;4.38;;
29728;SDS011;20055;51.498;11.960;2022-08-21T13:53:22;12.60;;;4.72;;
29728;SDS011;20055;51.498;11.960;2022-08-21T13:55:53;7.90;;;3.63;;
29728;SDS011;20055;51.498;11.960;2022-08-21T14:00:56;9.30;;;3.85;;
29728;SDS011;20055;51.498;11.960;2022-08-21T14:03:32;9.38;;;3.78;;
29728;SDS011;20055;51.498;11.960;2022-08-21T14:06:14;9.00;;;3.95;;
29728;SDS011;20055;51.498;11.960;2022-08-21T14:11:24;11.05;;;4.45;;
29728;SDS011;20055;51.498;11.960;2022-08-21T14:13:56;10.82;;;3.75;;
29728;SDS011;20055;51.498;11.960;2022-08-21T14:16:27;10.63;;;3.58;;
29728;SDS011;20055;51.498;11.960;2022-08-21T14:21:33;12.27;;;4.38;;
29728;SDS011;20055;51.498;11.960;2022-08-21T14:24:02;10.05;;;4.10;;
29728;SDS011;20055;51.498;11.960;2022-08-21T14:26:35;12.55;;;4.18;;
29728;SDS011;20055;51.498;11.960;2022-08-21T14:29:09;7.80;;;3.85;;
29728;SDS011;20055;51.498;11.960;2022-08-21T14:31:38;6.30;;;3.42;;
29728;SDS011;20055;51.498;11.960;2022-08-21T14:34:05;12.32;;;4.13;;
29728;SDS011;20055;51.498;11.960;2022-08-21T14:36:31;14.38;;;4.00;;
29728;SDS011;20055;51.498;11.960;2022-08-21T14:38:57;6.30;;;3.80;;
29728;SDS011;20055;51.498;11.960;2022-08-21T14:41:24;10.57;;;4.38;;
29728;SDS011;20055;51.498;11.960;2022-08-21T14:43:53;7.57;;;3.78;;
29728;SDS011;20055;51.498;11.960;2022-08-21T14:46:22;11.98;;;3.67;;
29728;SDS011;20055;51.498;11.960;2022-08-21T14:48:50;11.10;;;4.18;;
29728;SDS011;20055;51.498;11.960;2022-08-21T14:51:16;9.73;;;3.95;;
29728;SDS011;20055;51.498;11.960;2022-08-21T14:53:42;9.73;;;3.85;;
29728;SDS011;20055;51.498;11.960;2022-08-21T14:56:10;9.40;;;3.95;;
29728;SDS011;20055;51.498;11.960;2022-08-21T14:58:40;6.28;;;3.90;;
29728;SDS011;20055;51.498;11.960;2022-08-21T15:01:09;7.60;;;3.95;;
29728;SDS011;20055;51.498;11.960;2022-08-21T15:03:37;9.85;;;4.05;;
29728;SDS011;20055;51.498;11.960;2022-08-21T15:06:05;17.35;;;3.88;;
29728;SDS011;20055;51.498;11.960;2022-08-21T15:08:33;13.73;;;3.90;;
29728;SDS011;20055;51.498;11.960;2022-08-21T15:11:00;9.13;;;3.90;;
29728;SDS011;20055;51.498;11.960;2022-08-21T15:13:27;18.10;;;3.75;;
29728;SDS011;20055;51.498;11.960;2022-08-21T15:15:54;6.55;;;3.70;;
29728;SDS011;20055;51.498;11.960;2022-08-21T15:18:22;12.15;;;4.68;;
29728;SDS011;20055;51.498;11.960;2022-08-21T15:20:50;7.35;;;4.00;;
29728;SDS011;20055;51.498;11.960;2022-08-21T15:23:16;9.68;;;4.10;;
29728;SDS011;20055;51.498;11.960;2022-08-21T15:25:43;10.40;;;3.75;;
29728;SDS011;20055;51.498;11.960;2022-08-21T15:28:11;10.93;;;3.75;;
29728;SDS011;20055;51.498;11.960;2022-08-21T15:30:40;6.00;;;3.50;;
29728;SDS011;20055;51.498;11.960;2022-08-21T15:33:08;9.48;;;3.50;;
29728;SDS011;20055;51.498;11.960;2022-08-21T15:35:35;7.40;;;3.58;;
29728;SDS011;20055;51.498;11.960;2022-08-21T15:38:02;9.40;;;3.40;;
29728;SDS011;20055;51.498;11.960;2022-08-21T15:40:28;8.68;;;3.80;;
29728;SDS011;20055;51.498;11.960;2022-08-21T15:42:56;6.55;;;3.95;;
29728;SDS011;20055;51.498;11.960;2022-08-21T15:45:25;11.65;;;4.70;;
29728;SDS011;20055;51.498;11.960;2022-08-21T15:47:52;9.70;;;4.13;;
29728;SDS011;20055;51.498;11.960;2022-08-21T15:50:20;12.25;;;3.78;;
29728;SDS011;20055;51.498;11.960;2022-08-21T15:52:47;10.13;;;3.88;;
29728;SDS011;20055;51.498;11.960;2022-08-21T15:55:13;8.70;;;3.53;;
29728;SDS011;20055;51.498;11.960;2022-08-21T15:57:43;7.47;;;3.88;;
29728;SDS011;20055;51.498;11.960;2022-08-21T16:00:13;8.90;;;3.38;;
29728;SDS011;20055;51.498;11.960;2022-08-21T16:02:48;8.13;;;3.53;;
29728;SDS011;20055;51.498;11.960;2022-08-21T16:05:20;6.85;;;3.83;;
29728;SDS011;20055;51.498;11.960;2022-08-21T16:07:47;10.77;;;3.70;;
29728;SDS011;20055;51.498;11.960;2022-08-21T16:10:15;8.13;;;3.80;;
29728;SDS011;20055;51.498;11.960;2022-08-21T16:12:46;8.27;;;3.97;;
29728;SDS011;20055;51.498;11.960;2022-08-21T16:15:17;10.48;;;4.30;;
29728;SDS011;20055;51.498;11.960;2022-08-21T16:17:45;7.65;;;4.28;;